createdAt,value
2023-04-21T00:00:15.898Z,13.84
2023-04-21T00:02:42.601Z,13.74
2023-04-21T00:05:10.700Z,13.71
2023-04-21T00:07:38.408Z,13.68
2023-04-21T00:10:08.539Z,13.64
2023-04-21T00:12:35.336Z,13.67
2023-04-21T00:15:02.199Z,13.72
2023-04-21T00:17:31.369Z,13.72
2023-04-21T00:19:58.693Z,13.69
2023-04-21T00:22:25.280Z,13.64
2023-04-21T00:24:54.879Z,13.63
2023-04-21T00:27:21.520Z,13.57
2023-04-21T00:29:48.058Z,13.63
2023-04-21T00:32:19.608Z,13.65
2023-04-21T00:34:46.344Z,13.68
2023-04-21T00:37:15.648Z,13.67
2023-04-21T00:39:44.573Z,13.64
2023-04-21T00:42:15.442Z,13.64
2023-04-21T00:44:41.985Z,13.63
2023-04-21T00:47:11.759Z,13.56
2023-04-21T00:49:40.819Z,13.57
2023-04-21T00:52:07.408Z,13.55
2023-04-21T00:54:35.525Z,13.56
2023-04-21T00:57:03.755Z,13.57
2023-04-21T00:59:30.681Z,13.56
2023-04-21T01:01:59.824Z,13.61
2023-04-21T01:04:35.555Z,13.64
2023-04-21T01:07:04.424Z,13.63
2023-04-21T01:09:33.597Z,13.60
2023-04-21T01:12:03.588Z,13.59
2023-04-21T01:14:30.325Z,13.58
2023-04-21T01:16:58.444Z,13.59
2023-04-21T01:19:25.380Z,13.58
2023-04-21T01:21:54.192Z,13.62
2023-04-21T01:24:20.893Z,13.55
2023-04-21T01:26:54.713Z,13.57
2023-04-21T01:29:21.412Z,13.58
2023-04-21T01:31:50.360Z,13.57
2023-04-21T01:34:17.046Z,13.48
2023-04-21T01:36:44.680Z,13.49
2023-04-21T01:39:11.343Z,13.52
2023-04-21T01:41:40.753Z,13.51
2023-04-21T01:44:07.334Z,13.49
2023-04-21T01:46:36.847Z,13.52
2023-04-21T01:49:03.978Z,13.49
2023-04-21T01:51:33.248Z,13.53
2023-04-21T01:54:02.216Z,13.49
2023-04-21T01:56:31.433Z,13.47
2023-04-21T01:58:59.511Z,13.39
2023-04-21T02:01:26.491Z,13.39
2023-04-21T02:03:55.943Z,13.38
2023-04-21T02:06:25.632Z,13.39
2023-04-21T02:08:54.824Z,13.34
2023-04-21T02:11:21.515Z,13.31
2023-04-21T02:13:50.463Z,13.31
2023-04-21T02:16:20.705Z,13.35
2023-04-21T02:18:52.487Z,13.35
2023-04-21T02:21:19.481Z,13.35
2023-04-21T02:23:46.134Z,13.30
2023-04-21T02:26:12.768Z,13.32
2023-04-21T02:28:39.425Z,13.21
2023-04-21T02:31:12.065Z,13.14
2023-04-21T02:33:38.753Z,13.07
2023-04-21T02:36:05.737Z,13.03
2023-04-21T02:38:32.518Z,13.02
2023-04-21T02:40:59.090Z,13.10
2023-04-21T02:43:25.690Z,13.06
2023-04-21T02:45:52.396Z,12.98
2023-04-21T02:48:23.042Z,12.93
2023-04-21T02:50:53.122Z,12.89
2023-04-21T02:53:20.447Z,12.81
2023-04-21T02:55:47.116Z,12.84
2023-04-21T02:58:16.643Z,12.84
2023-04-21T03:00:43.237Z,12.91
2023-04-21T03:03:10.122Z,12.89
2023-04-21T03:05:38.910Z,12.89
2023-04-21T03:08:05.940Z,12.90
2023-04-21T03:10:36.662Z,12.91
2023-04-21T03:13:05.650Z,12.88
2023-04-21T03:15:34.618Z,12.89
2023-04-21T03:18:01.941Z,12.94
2023-04-21T03:20:28.803Z,12.82
2023-04-21T03:22:55.403Z,12.86
2023-04-21T03:25:22.568Z,12.80
2023-04-21T03:27:49.552Z,12.66
2023-04-21T03:30:16.284Z,12.64
2023-04-21T03:32:43.016Z,12.55
2023-04-21T03:35:14.620Z,12.50
2023-04-21T03:37:44.148Z,12.36
2023-04-21T03:40:10.911Z,12.36
2023-04-21T03:42:37.558Z,12.36
2023-04-21T03:45:08.001Z,12.37
2023-04-21T03:47:34.784Z,12.36
2023-04-21T03:50:03.127Z,12.24
2023-04-21T03:52:29.665Z,12.27
2023-04-21T03:54:56.437Z,12.20
2023-04-21T03:57:23.055Z,12.19
2023-04-21T03:59:50.030Z,12.19
2023-04-21T04:02:16.700Z,12.25
2023-04-21T04:04:43.721Z,12.28
2023-04-21T04:07:13.074Z,12.29
2023-04-21T04:09:42.317Z,12.30
2023-04-21T04:12:10.504Z,12.31
2023-04-21T04:14:38.213Z,12.28
2023-04-21T04:17:04.786Z,12.28
2023-04-21T04:19:34.363Z,12.30
2023-04-21T04:22:01.359Z,12.32
2023-04-21T04:24:28.126Z,12.33
2023-04-21T04:26:58.202Z,12.29
2023-04-21T04:29:24.884Z,12.29
2023-04-21T04:31:51.589Z,12.28
2023-04-21T04:34:18.651Z,12.30
2023-04-21T04:36:48.153Z,12.31
2023-04-21T04:39:16.474Z,12.31
2023-04-21T04:41:43.130Z,12.40
2023-04-21T04:44:11.189Z,12.48
2023-04-21T04:46:39.197Z,12.53
2023-04-21T04:49:08.372Z,12.55
2023-04-21T04:51:34.938Z,12.67
2023-04-21T04:54:02.139Z,12.77
2023-04-21T04:56:30.161Z,12.79
2023-04-21T04:58:56.989Z,12.78
2023-04-21T05:01:30.254Z,12.84
2023-04-21T05:03:59.414Z,12.91
2023-04-21T05:06:26.324Z,13.00
2023-04-21T05:08:56.138Z,13.02
2023-04-21T05:11:25.577Z,13.04
2023-04-21T05:13:52.266Z,13.09
2023-04-21T05:16:21.715Z,13.14
2023-04-21T05:18:53.234Z,13.15
2023-04-21T05:21:24.379Z,13.11
2023-04-21T05:23:53.375Z,13.09
2023-04-21T05:26:20.034Z,13.12
2023-04-21T05:28:46.645Z,13.20
2023-04-21T05:31:18.441Z,13.25
2023-04-21T05:33:45.089Z,13.29
2023-04-21T05:36:11.896Z,13.33
2023-04-21T05:38:43.112Z,13.34
2023-04-21T05:41:09.805Z,13.39
2023-04-21T05:43:36.498Z,13.47
2023-04-21T05:46:03.573Z,13.59
2023-04-21T05:48:33.224Z,13.70
2023-04-21T05:51:09.532Z,13.79
2023-04-21T05:53:36.260Z,13.94
2023-04-21T05:56:02.887Z,14.01
2023-04-21T05:58:29.549Z,13.98
2023-04-21T06:00:56.111Z,14.04
2023-04-21T06:03:23.310Z,14.12
2023-04-21T06:05:54.402Z,14.24
2023-04-21T06:08:21.269Z,14.39
2023-04-21T06:10:47.932Z,14.52
2023-04-21T06:13:16.925Z,14.52
2023-04-21T06:15:43.532Z,14.60
2023-04-21T06:18:10.534Z,14.69
2023-04-21T06:20:41.109Z,14.77
2023-04-21T06:23:13.611Z,14.86
2023-04-21T06:25:40.178Z,14.92
2023-04-21T06:28:07.183Z,15.02
2023-04-21T06:30:33.767Z,15.05
2023-04-21T06:33:00.841Z,15.18
2023-04-21T06:35:30.741Z,15.22
2023-04-21T06:37:57.354Z,15.26
2023-04-21T06:40:24.002Z,15.37
2023-04-21T06:42:50.642Z,15.36
2023-04-21T06:45:21.519Z,15.41
2023-04-21T06:47:48.439Z,15.48
2023-04-21T06:50:15.166Z,15.61
2023-04-21T06:52:44.086Z,15.71
2023-04-21T06:55:10.917Z,15.79
2023-04-21T06:57:45.261Z,15.86
2023-04-21T07:00:15.170Z,15.82
2023-04-21T07:02:45.080Z,15.88
2023-04-21T07:05:14.084Z,15.97
2023-04-21T07:07:40.614Z,16.05
2023-04-21T07:10:07.534Z,16.14
2023-04-21T07:12:34.270Z,16.14
2023-04-21T07:15:00.965Z,16.26
2023-04-21T07:17:30.240Z,16.35
2023-04-21T07:19:59.077Z,16.42
2023-04-21T07:22:25.677Z,16.57
2023-04-21T07:24:52.783Z,16.70
2023-04-21T07:27:21.829Z,16.71
2023-04-21T07:29:48.543Z,16.82
2023-04-21T07:32:17.490Z,16.91
2023-04-21T07:34:47.028Z,17.00
2023-04-21T07:37:13.657Z,17.04
2023-04-21T07:39:40.227Z,17.03
2023-04-21T07:42:09.767Z,17.14
2023-04-21T07:44:36.577Z,17.13
2023-04-21T07:47:03.218Z,17.09
2023-04-21T07:49:32.602Z,17.13
2023-04-21T07:51:59.342Z,17.24
2023-04-21T07:54:26.301Z,17.36
2023-04-21T07:56:55.341Z,17.43
2023-04-21T07:59:24.009Z,17.41
2023-04-21T08:01:52.327Z,17.49
2023-04-21T08:04:19.454Z,17.64
2023-04-21T08:06:47.060Z,17.72
2023-04-21T08:09:15.935Z,17.88
2023-04-21T08:11:42.692Z,18.03
2023-04-21T08:14:12.154Z,18.17
2023-04-21T08:16:40.357Z,18.26
2023-04-21T08:19:09.824Z,18.37
2023-04-21T08:21:36.844Z,18.50
2023-04-21T08:24:03.790Z,18.54
2023-04-21T08:26:30.407Z,18.63
2023-04-21T08:28:57.443Z,18.68
2023-04-21T08:31:26.744Z,18.69
2023-04-21T08:34:01.363Z,18.79
2023-04-21T08:36:34.207Z,18.90
2023-04-21T08:39:01.632Z,19.01
2023-04-21T08:41:28.307Z,19.03
2023-04-21T08:43:55.318Z,19.10
2023-04-21T08:46:22.030Z,19.17
2023-04-21T08:48:48.988Z,19.30
2023-04-21T08:51:21.003Z,19.39
2023-04-21T08:53:48.041Z,19.47
2023-04-21T08:56:14.983Z,19.48
2023-04-21T08:58:42.141Z,19.56
2023-04-21T09:01:08.965Z,19.70
2023-04-21T09:03:35.835Z,19.82
2023-04-21T09:06:05.508Z,20.02
2023-04-21T09:08:32.985Z,20.14
2023-04-21T09:11:06.228Z,20.35
2023-04-21T09:13:36.524Z,20.53
2023-04-21T09:16:05.681Z,20.59
2023-04-21T09:18:37.289Z,20.63
2023-04-21T09:21:07.030Z,20.58
2023-04-21T09:23:50.441Z,20.68
2023-04-21T09:26:18.222Z,20.82
2023-04-21T09:28:48.044Z,20.95
2023-04-21T09:31:16.131Z,21.01
2023-04-21T09:36:26.251Z,21.25
2023-04-21T09:39:15.374Z,21.32
2023-04-21T09:41:45.029Z,21.42
2023-04-21T09:44:12.126Z,21.52
2023-04-21T09:46:39.402Z,21.62
2023-04-21T09:49:08.704Z,21.58
2023-04-21T09:52:09.706Z,21.66
2023-04-21T09:54:30.116Z,21.67
2023-04-21T09:57:02.271Z,21.57
2023-04-21T09:59:37.837Z,21.46
2023-04-21T10:02:09.555Z,21.63
2023-04-21T10:04:36.749Z,21.76
2023-04-21T10:07:03.844Z,21.89
2023-04-21T10:09:44.310Z,22.23
2023-04-21T10:12:13.459Z,22.66
2023-04-21T10:14:42.918Z,22.75
2023-04-21T10:17:12.111Z,22.92
2023-04-21T10:19:49.443Z,23.19
2023-04-21T10:22:16.124Z,22.86
2023-04-21T10:24:43.013Z,22.84
2023-04-21T10:27:10.159Z,22.85
2023-04-21T10:29:52.540Z,22.84
2023-04-21T10:32:43.726Z,22.80
2023-04-21T10:35:11.098Z,22.56
2023-04-21T10:37:37.912Z,22.63
2023-04-21T10:40:09.783Z,23.06
2023-04-21T10:42:38.570Z,23.45
2023-04-21T10:45:08.883Z,23.84
2023-04-21T10:47:44.494Z,23.93
2023-04-21T10:50:12.094Z,23.66
2023-04-21T10:52:39.609Z,23.35
2023-04-21T10:55:07.317Z,23.59
2023-04-21T10:57:35.220Z,24.06
2023-04-21T11:00:02.024Z,24.45
2023-04-21T11:02:31.414Z,24.74
2023-04-21T11:05:01.319Z,25.22
2023-04-21T11:07:28.736Z,25.61
2023-04-21T11:09:58.750Z,25.61
2023-04-21T11:12:30.193Z,25.43
2023-04-21T11:14:59.469Z,25.17
2023-04-21T11:17:28.445Z,25.03
2023-04-21T11:19:59.423Z,24.89
2023-04-21T11:22:28.890Z,24.54
2023-04-21T11:24:58.662Z,24.33
2023-04-21T11:27:29.961Z,24.14
2023-04-21T11:29:58.968Z,24.00
2023-04-21T11:32:25.737Z,24.01
2023-04-21T11:34:52.351Z,23.99
2023-04-21T11:37:23.815Z,23.85
2023-04-21T11:39:53.595Z,23.71
2023-04-21T11:42:23.439Z,23.58
2023-04-21T11:44:50.163Z,23.59
2023-04-21T11:47:28.309Z,23.55
2023-04-21T11:49:58.286Z,23.55
2023-04-21T11:52:25.328Z,23.59
2023-04-21T11:55:01.524Z,23.65
2023-04-21T11:57:28.718Z,24.34
2023-04-21T11:59:58.597Z,25.21
2023-04-21T12:02:26.401Z,25.80
2023-04-21T12:05:07.043Z,26.45
2023-04-21T12:07:34.520Z,26.45
2023-04-21T12:10:05.667Z,26.18
2023-04-21T12:12:34.009Z,26.15
2023-04-21T12:15:04.598Z,26.39
2023-04-21T12:18:00.606Z,26.45
2023-04-21T12:20:28.932Z,26.33
2023-04-21T12:22:56.547Z,26.10
2023-04-21T12:25:23.307Z,25.41
2023-04-21T12:27:54.304Z,24.68
2023-04-21T12:30:23.827Z,24.23
2023-04-21T12:32:54.385Z,23.98
2023-04-21T12:35:21.816Z,23.99
2023-04-21T12:37:48.481Z,23.79
2023-04-21T12:40:15.048Z,23.60
2023-04-21T12:42:41.632Z,22.97
2023-04-21T12:45:10.811Z,22.69
2023-04-21T12:47:37.689Z,22.62
2023-04-21T12:50:04.805Z,22.66
2023-04-21T12:52:31.412Z,22.58
2023-04-21T12:55:00.394Z,22.73
2023-04-21T12:57:27.019Z,22.85
2023-04-21T12:59:56.024Z,22.96
2023-04-21T13:02:22.882Z,23.12
2023-04-21T13:04:54.159Z,23.29
2023-04-21T13:07:26.804Z,23.39
2023-04-21T13:09:53.533Z,23.34
2023-04-21T13:12:20.636Z,23.25
2023-04-21T13:14:49.656Z,23.07
2023-04-21T13:17:16.488Z,23.03
2023-04-21T13:19:43.383Z,22.89
2023-04-21T13:22:12.261Z,22.66
2023-04-21T13:24:38.916Z,22.54
2023-04-21T13:27:10.265Z,22.55
2023-04-21T13:29:39.221Z,22.42
2023-04-21T13:32:06.896Z,22.41
2023-04-21T13:34:34.373Z,22.45
2023-04-21T13:37:01.627Z,22.55
2023-04-21T13:39:28.281Z,22.67
2023-04-21T13:41:54.942Z,22.76
2023-04-21T13:46:52.966Z,22.60
2023-04-21T13:49:19.850Z,22.71
2023-04-21T13:51:48.969Z,22.68
2023-04-21T13:54:20.258Z,22.81
2023-04-21T13:56:46.977Z,22.98
2023-04-21T13:59:14.929Z,23.18
2023-04-21T14:01:41.824Z,23.24
2023-04-21T14:04:11.183Z,23.31
2023-04-21T14:06:37.900Z,23.15
2023-04-21T14:09:05.032Z,23.21
2023-04-21T14:11:31.813Z,23.53
2023-04-21T14:14:08.909Z,23.91
2023-04-21T14:16:39.112Z,24.27
2023-04-21T14:19:06.902Z,24.36
2023-04-21T14:21:33.779Z,24.48
2023-04-21T14:24:00.438Z,24.61
2023-04-21T14:26:27.107Z,24.70
2023-04-21T14:28:59.658Z,24.69
2023-04-21T14:31:28.870Z,24.57
2023-04-21T14:33:58.000Z,24.38
2023-04-21T14:36:24.631Z,23.80
2023-04-21T14:38:51.293Z,23.58
2023-04-21T14:41:28.289Z,23.62
2023-04-21T14:43:59.208Z,23.70
2023-04-21T14:46:26.608Z,23.85
2023-04-21T14:48:58.295Z,23.92
2023-04-21T14:51:25.545Z,24.00
2023-04-21T14:53:52.484Z,24.21
2023-04-21T14:56:22.547Z,24.28
2023-04-21T14:58:53.780Z,24.35
2023-04-21T15:01:25.988Z,24.32
2023-04-21T15:03:53.246Z,24.53
2023-04-21T15:06:23.775Z,24.74
2023-04-21T15:08:55.673Z,24.73
2023-04-21T15:11:25.006Z,24.79
2023-04-21T15:13:54.101Z,26.37
2023-04-21T15:16:20.805Z,28.18
2023-04-21T15:18:47.384Z,29.63
2023-04-21T15:21:13.997Z,30.91
2023-04-21T15:23:43.921Z,31.36
2023-04-21T15:26:10.568Z,30.77
2023-04-21T15:28:39.510Z,29.98
2023-04-21T15:31:12.231Z,29.67
2023-04-21T15:33:41.577Z,30.08
2023-04-21T15:36:12.301Z,30.05
2023-04-21T15:38:38.903Z,28.20
2023-04-21T15:41:05.754Z,27.40
2023-04-21T15:43:33.192Z,27.31
2023-04-21T15:46:01.890Z,27.47
2023-04-21T15:48:31.220Z,27.03
2023-04-21T15:51:03.571Z,27.15
2023-04-21T15:53:30.737Z,27.01
2023-04-21T15:56:05.217Z,26.48
2023-04-21T15:58:39.812Z,26.15
2023-04-21T16:01:09.440Z,26.42
2023-04-21T16:03:47.026Z,26.66
2023-04-21T16:06:13.914Z,27.01
2023-04-21T16:08:43.518Z,26.94
2023-04-21T16:11:12.863Z,26.95
2023-04-21T16:13:39.500Z,26.43
2023-04-21T16:16:06.470Z,26.36
2023-04-21T16:18:35.708Z,26.49
2023-04-21T16:21:04.879Z,26.49
2023-04-21T16:23:33.921Z,25.72
2023-04-21T16:26:06.433Z,25.39
2023-04-21T16:28:35.554Z,24.79
2023-04-21T16:31:05.303Z,24.51
2023-04-21T16:33:34.262Z,24.23
2023-04-21T16:36:03.696Z,24.00
2023-04-21T16:38:32.635Z,23.66
2023-04-21T16:40:59.332Z,23.56
2023-04-21T16:43:26.472Z,23.38
2023-04-21T16:45:56.180Z,23.37
2023-04-21T16:48:22.980Z,23.17
2023-04-21T16:50:53.909Z,23.01
2023-04-21T16:53:20.959Z,22.73
2023-04-21T16:55:52.882Z,22.75
2023-04-21T16:58:20.395Z,22.75
2023-04-21T17:00:49.340Z,22.70
2023-04-21T17:03:23.591Z,22.50
2023-04-21T17:05:52.669Z,22.40
2023-04-21T17:08:19.291Z,22.48
2023-04-21T17:10:45.976Z,22.33
2023-04-21T17:13:12.740Z,22.22
2023-04-21T17:15:39.309Z,22.12
2023-04-21T17:18:08.385Z,21.96
2023-04-21T17:20:35.220Z,21.72
2023-04-21T17:23:04.652Z,21.53
2023-04-21T17:25:31.340Z,21.31
2023-04-21T17:27:57.955Z,21.09
2023-04-21T17:30:24.586Z,20.93
2023-04-21T17:33:00.523Z,20.56
2023-04-21T17:35:46.079Z,20.38
2023-04-21T17:38:21.361Z,20.20
2023-04-21T17:40:47.928Z,19.95
2023-04-21T17:43:14.492Z,19.76
2023-04-21T17:45:43.357Z,19.72
2023-04-21T17:48:10.009Z,19.59
2023-04-21T17:50:39.089Z,19.46
2023-04-21T17:53:05.768Z,19.10
2023-04-21T17:55:32.460Z,18.92
2023-04-21T17:58:01.440Z,18.86
2023-04-21T18:00:34.508Z,18.86
2023-04-21T18:03:02.154Z,18.87
2023-04-21T18:05:29.568Z,18.74
2023-04-21T18:07:58.644Z,18.68
2023-04-21T18:10:28.264Z,18.56
2023-04-21T18:12:56.130Z,18.60
2023-04-21T18:15:25.768Z,18.50
2023-04-21T18:17:53.369Z,18.37
2023-04-21T18:20:23.480Z,18.29
2023-04-21T18:22:54.190Z,18.30
2023-04-21T18:25:40.614Z,18.28
2023-04-21T18:28:11.091Z,18.10
2023-04-21T18:30:37.805Z,18.06
2023-04-21T18:33:04.949Z,18.03
2023-04-21T18:35:34.360Z,18.00
2023-04-21T18:38:03.898Z,17.92
2023-04-21T18:40:37.084Z,17.83
2023-04-21T18:43:06.425Z,17.77
2023-04-21T18:45:33.669Z,17.71
2023-04-21T18:48:00.358Z,17.57
2023-04-21T18:50:29.587Z,17.50
2023-04-21T18:52:58.790Z,17.41
2023-04-21T18:55:25.467Z,17.37
2023-04-21T18:57:52.081Z,17.23
2023-04-21T19:00:19.531Z,17.13
2023-04-21T19:02:48.844Z,17.08
2023-04-21T19:05:16.417Z,17.09
2023-04-21T19:07:44.189Z,17.06
2023-04-21T19:10:11.101Z,17.04
2023-04-21T19:12:37.763Z,17.07
2023-04-21T19:15:04.689Z,17.10
2023-04-21T19:17:31.607Z,17.08
2023-04-21T19:20:00.916Z,17.09
2023-04-21T19:22:32.834Z,17.10
2023-04-21T19:25:00.974Z,17.10
2023-04-21T19:27:34.186Z,17.00
2023-04-21T19:30:01.677Z,16.94
2023-04-21T19:32:28.878Z,16.92
2023-04-21T19:34:56.982Z,16.90
2023-04-21T19:37:24.383Z,16.90
2023-04-21T19:39:51.066Z,16.91
2023-04-21T19:42:17.711Z,16.85
2023-04-21T19:44:48.750Z,16.82
2023-04-21T19:47:21.819Z,16.72
2023-04-21T19:49:48.817Z,16.62
2023-04-21T19:52:19.097Z,16.55
2023-04-21T19:54:48.507Z,16.48
2023-04-21T19:57:15.196Z,16.42
2023-04-21T19:59:49.222Z,16.39
2023-04-21T20:02:16.720Z,16.34
2023-04-21T20:04:43.716Z,16.30
2023-04-21T20:07:13.772Z,16.19
2023-04-21T20:09:42.911Z,16.11
2023-04-21T20:12:12.120Z,16.05
2023-04-21T20:14:39.006Z,16.03
2023-04-21T20:17:08.194Z,15.96
2023-04-21T20:19:40.653Z,15.94
2023-04-21T20:22:08.237Z,15.87
2023-04-21T20:24:39.756Z,15.83
2023-04-21T20:27:08.801Z,15.81
2023-04-21T20:29:36.555Z,15.77
2023-04-21T20:32:03.712Z,15.70
2023-04-21T20:34:30.714Z,15.62
2023-04-21T20:36:59.772Z,15.58
2023-04-21T20:39:26.832Z,15.54
2023-04-21T20:42:11.898Z,15.51
2023-04-21T20:44:41.268Z,15.46
2023-04-21T20:47:11.145Z,15.32
2023-04-21T20:49:42.750Z,15.26
2023-04-21T20:52:09.646Z,15.23
2023-04-21T20:54:36.501Z,15.12
2023-04-21T20:57:03.103Z,15.07
2023-04-21T20:59:32.138Z,15.07
2023-04-21T21:02:10.999Z,15.03
2023-04-21T21:04:42.482Z,15.01
2023-04-21T21:07:09.062Z,15.02
2023-04-21T21:09:35.922Z,14.93
2023-04-21T21:12:02.716Z,14.76
2023-04-21T21:14:32.128Z,14.57
2023-04-21T21:17:01.572Z,14.59
2023-04-21T21:19:30.621Z,14.62
2023-04-21T21:21:57.569Z,14.62
2023-04-21T21:24:26.331Z,14.66
2023-04-21T21:26:53.068Z,14.62
2023-04-21T21:29:19.696Z,14.64
2023-04-21T21:31:49.974Z,14.65
2023-04-21T21:34:19.643Z,14.61
2023-04-21T21:36:46.288Z,14.59
2023-04-21T21:39:13.915Z,14.58
2023-04-21T21:41:43.478Z,14.60
2023-04-21T21:44:12.568Z,14.59
2023-04-21T21:46:41.594Z,14.55
2023-04-21T21:49:10.940Z,14.48
2023-04-21T21:51:45.699Z,14.44
2023-04-21T21:54:21.127Z,14.41
2023-04-21T22:00:51.950Z,14.35
2023-04-21T22:03:25.340Z,14.34
2023-04-21T22:05:52.338Z,14.30
2023-04-21T22:08:21.808Z,14.23
2023-04-21T22:10:49.467Z,14.24
2023-04-21T22:13:18.502Z,14.23
2023-04-21T22:15:47.985Z,14.26
2023-04-21T22:18:18.710Z,14.30
2023-04-21T22:20:47.651Z,14.29
2023-04-21T22:23:19.734Z,14.31
2023-04-21T22:25:58.297Z,14.20
2023-04-21T22:28:29.893Z,14.07
2023-04-21T22:30:59.136Z,14.05
2023-04-21T22:33:26.082Z,14.03
2023-04-21T22:35:52.672Z,13.95
2023-04-21T22:38:19.864Z,13.86
2023-04-21T22:40:46.722Z,13.92
2023-04-21T22:43:14.820Z,13.95
2023-04-21T22:45:42.968Z,13.92
2023-04-21T22:48:09.652Z,13.92
2023-04-21T22:50:36.323Z,13.76
2023-04-21T22:53:02.947Z,13.56
2023-04-21T22:55:32.139Z,13.53
2023-04-21T22:57:58.891Z,13.53
2023-04-21T23:00:30.343Z,13.23
2023-04-21T23:02:57.155Z,13.05
2023-04-21T23:05:24.007Z,12.97
2023-04-21T23:07:53.121Z,13.03
2023-04-21T23:10:22.388Z,13.21
2023-04-21T23:12:49.160Z,13.30
2023-04-21T23:15:15.891Z,13.39
2023-04-21T23:17:43.416Z,13.45
2023-04-21T23:20:10.390Z,13.42
2023-04-21T23:22:37.127Z,13.44
2023-04-21T23:25:04.156Z,13.46
2023-04-21T23:27:33.336Z,13.37
2023-04-21T23:30:00.414Z,13.19
2023-04-21T23:32:31.534Z,13.05
2023-04-21T23:34:58.206Z,13.02
2023-04-21T23:37:24.829Z,13.03
2023-04-21T23:39:53.854Z,13.17
2023-04-21T23:42:20.580Z,13.10
2023-04-21T23:44:47.491Z,13.26
2023-04-21T23:47:14.560Z,13.38
2023-04-21T23:49:44.064Z,13.45
2023-04-21T23:52:10.812Z,13.54
2023-04-21T23:54:37.384Z,13.59
2023-04-21T23:57:06.541Z,13.63
2023-04-21T23:59:35.849Z,13.67
